KTCC/TCC METAR and TAF weather

Enter ICAO airport designator
Station Type Date Time Source
KTCC METAR 2019/06/17 11:53 UTC NOAA

KTCC 171153Z AUTO 19009KT 10SM FEW080 BKN110 19/14 A3003 RMK AO2 SLP107 T01940139 10206 20172 53002


Station Type Date Time Source
KTCC Decoded METAR 2019/06/17 11:53 UTC NOAA

TUCUMCARI MUNICIPAL AIRPORT , NM, United States (KTCC) 35-11N 103-36W 1235M
Jun 17, 2019 - 07:53 AM EDT / 2019.06.17 1153 UTC
Wind: from the S (190 degrees) at 10 MPH (9 KT):0
Visibility: 10 mile(s):0
Sky conditions: mostly cloudy
Temperature: 66.9 F (19.4 C)
Dew Point: 57.0 F (13.9 C)
Relative Humidity: 70%
Pressure (altimeter): 30.03 in. Hg (1016 hPa)
Pressure tendency: 0.01 inches (0.2 hPa) higher than three hours ago
ob: KTCC 171153Z AUTO 19009KT 10SM FEW080 BKN110 19/14 A3003 RMK AO2 SLP107 T01940139 10206 20172 53002
cycle: 12

Station Type Date Time Source
KTCC TAF 2019/06/17 12:36 UTC NOAA

TAF KTCC 171133Z 1712/1812 16007KT P6SM VCSH BKN100
FM171500 19010KT P6SM SCT070 SCT120
FM172100 20015G25KT P6SM VCSH BKN080 BKN120
TEMPO 1722/1802 VRB22G35KT 6SM -TSRA BKN050CB
FM180200 06008KT P6SM VCSH SCT070 BKN100

Example: see airport list